createdAt,value
2023-01-08T01:03:48.749Z,8.90
2023-01-08T01:06:15.575Z,10.50
2023-01-08T01:08:42.415Z,7.20
2023-01-08T01:11:10.174Z,8.90
2023-01-08T01:13:36.781Z,12.80
2023-01-08T01:16:03.897Z,10.40
2023-01-08T01:18:31.423Z,13.50
2023-01-08T01:20:58.065Z,16.00
2023-01-08T01:23:24.902Z,19.10
2023-01-08T01:25:51.739Z,21.80
2023-01-08T01:28:18.584Z,20.30
2023-01-08T01:30:45.218Z,22.10
2023-01-08T01:33:12.064Z,17.80
2023-01-08T01:35:38.711Z,18.60
2023-01-08T01:38:05.546Z,18.10
2023-01-08T01:40:32.395Z,14.30
2023-01-08T01:42:59.016Z,14.80
2023-01-08T01:45:29.835Z,14.10
2023-01-08T01:48:06.764Z,12.60
2023-01-08T01:50:36.550Z,13.30
2023-01-08T01:53:05.854Z,14.50
2023-01-08T01:55:32.839Z,12.70
2023-01-08T01:58:08.534Z,14.20
2023-01-08T02:00:35.854Z,11.30
2023-01-08T02:03:03.704Z,12.10
2023-01-08T02:05:47.228Z,11.00
2023-01-08T02:08:16.183Z,11.60
2023-01-08T02:10:49.131Z,8.20
2023-01-08T02:13:23.393Z,10.60
2023-01-08T02:15:50.031Z,10.60
2023-01-08T02:18:38.865Z,8.20
2023-01-08T02:21:09.687Z,9.20
2023-01-08T02:23:54.982Z,8.60
2023-01-08T02:26:26.592Z,9.20
2023-01-08T02:29:00.046Z,8.60
2023-01-08T02:31:28.028Z,8.00
2023-01-08T02:33:54.741Z,8.60
2023-01-08T02:36:30.874Z,10.00
2023-01-08T02:39:03.441Z,11.00
2023-01-08T02:41:36.493Z,8.20
2023-01-08T02:44:05.155Z,9.00
2023-01-08T02:46:32.614Z,7.40
2023-01-08T02:49:04.391Z,8.20
2023-01-08T02:51:34.072Z,11.60
2023-01-08T02:54:06.510Z,8.50
2023-01-08T02:56:39.044Z,11.30
2023-01-08T02:59:06.686Z,9.40
2023-01-08T03:01:34.989Z,9.20
2023-01-08T03:04:08.452Z,8.70
2023-01-08T03:06:35.427Z,10.00
2023-01-08T03:09:02.100Z,9.10
2023-01-08T03:11:32.058Z,9.00
2023-01-08T03:14:09.661Z,9.80
2023-01-08T03:16:38.287Z,9.30
2023-01-08T03:19:31.828Z,8.80
2023-01-08T03:22:01.131Z,8.90
2023-01-08T03:24:29.807Z,9.00
2023-01-08T03:26:58.723Z,8.60
2023-01-08T03:29:26.148Z,10.30
2023-01-08T03:31:55.250Z,9.00
2023-01-08T03:34:24.334Z,10.60
2023-01-08T03:36:52.449Z,10.70
2023-01-08T03:39:21.290Z,14.50
2023-01-08T03:41:48.585Z,9.00
2023-01-08T03:44:34.033Z,12.00
2023-01-08T03:47:02.127Z,13.30
2023-01-08T03:49:29.769Z,11.80
2023-01-08T03:51:56.817Z,11.90
2023-01-08T03:54:25.080Z,11.20
2023-01-08T03:56:51.948Z,11.20
2023-01-08T03:59:18.776Z,14.40
2023-01-08T04:01:45.527Z,13.50
2023-01-08T04:04:12.575Z,15.90
2023-01-08T04:06:39.953Z,11.40
2023-01-08T04:09:06.957Z,13.70
2023-01-08T04:11:33.615Z,12.40
2023-01-08T04:14:00.226Z,13.90
2023-01-08T04:16:26.804Z,13.50
2023-01-08T04:18:53.479Z,12.30
2023-01-08T04:21:20.157Z,17.60
2023-01-08T04:23:47.613Z,18.40
2023-01-08T04:26:14.244Z,16.50
2023-01-08T04:28:40.817Z,14.90
2023-01-08T04:31:08.038Z,13.80
2023-01-08T04:33:35.392Z,17.40
2023-01-08T04:36:02.679Z,13.20
2023-01-08T04:38:29.483Z,17.30
2023-01-08T04:40:59.602Z,13.30
2023-01-08T04:43:26.864Z,12.90
2023-01-08T04:45:57.469Z,16.20
2023-01-08T04:48:24.141Z,17.00
2023-01-08T04:50:51.650Z,14.20
2023-01-08T04:53:18.253Z,15.80
2023-01-08T04:55:44.969Z,16.10
2023-01-08T04:58:12.416Z,15.90
2023-01-08T05:00:40.289Z,15.10
2023-01-08T05:03:07.185Z,14.60
2023-01-08T05:05:34.640Z,13.40
2023-01-08T05:08:01.281Z,13.30
2023-01-08T05:10:27.859Z,16.60
2023-01-08T05:12:58.222Z,15.50
2023-01-08T05:15:24.831Z,15.70
2023-01-08T05:17:58.261Z,18.00
2023-01-08T05:20:24.829Z,17.40
2023-01-08T05:22:51.691Z,15.50
2023-01-08T05:25:18.329Z,14.40
2023-01-08T05:27:44.968Z,12.30
2023-01-08T05:30:12.419Z,13.70
2023-01-08T05:32:39.081Z,12.30
2023-01-08T05:35:06.155Z,12.40
2023-01-08T05:37:36.230Z,13.90
2023-01-08T05:40:03.686Z,13.90
2023-01-08T05:42:30.324Z,14.60
2023-01-08T05:44:56.905Z,12.90
2023-01-08T05:47:23.598Z,11.30
2023-01-08T05:49:50.449Z,12.00
2023-01-08T05:52:17.314Z,11.00
2023-01-08T05:54:43.964Z,13.30
2023-01-08T05:57:10.510Z,14.60
2023-01-08T05:59:37.102Z,14.00
2023-01-08T06:02:03.722Z,15.00
2023-01-08T06:04:30.385Z,14.00
2023-01-08T06:06:57.010Z,14.50
2023-01-08T06:09:23.643Z,14.70
2023-01-08T06:11:50.191Z,14.50
2023-01-08T06:14:17.287Z,13.80
2023-01-08T06:16:44.232Z,16.70
2023-01-08T06:19:11.397Z,16.00
2023-01-08T06:21:38.505Z,19.50
2023-01-08T06:24:05.404Z,17.10
2023-01-08T06:26:32.259Z,21.70
2023-01-08T06:28:58.811Z,21.10
2023-01-08T06:31:25.627Z,20.20
2023-01-08T06:33:52.581Z,17.60
2023-01-08T06:36:19.154Z,18.20
2023-01-08T06:38:45.790Z,15.50
2023-01-08T06:41:12.498Z,13.80
2023-01-08T06:43:39.317Z,18.50
2023-01-08T06:46:06.656Z,17.60
2023-01-08T06:48:33.277Z,18.00
2023-01-08T06:51:00.505Z,17.20
2023-01-08T06:53:27.148Z,15.60
2023-01-08T06:55:57.193Z,15.80
2023-01-08T06:58:24.501Z,14.30
2023-01-08T07:00:51.196Z,15.00
2023-01-08T07:03:17.928Z,12.60
2023-01-08T07:05:44.572Z,13.40
2023-01-08T07:08:12.273Z,15.30
2023-01-08T07:10:39.100Z,13.80
2023-01-08T07:13:08.140Z,11.80
2023-01-08T07:15:37.890Z,11.60
2023-01-08T07:18:05.988Z,13.50
2023-01-08T07:20:33.565Z,10.50
2023-01-08T07:23:04.373Z,11.90
2023-01-08T07:25:31.626Z,15.90
2023-01-08T07:27:58.906Z,14.00
2023-01-08T07:30:30.327Z,13.00
2023-01-08T07:33:01.492Z,13.60
2023-01-08T07:35:28.437Z,14.20
2023-01-08T07:37:55.518Z,15.70
2023-01-08T07:40:22.722Z,15.30
2023-01-08T07:42:49.335Z,15.20
2023-01-08T07:45:15.965Z,19.80
2023-01-08T07:47:42.627Z,15.10
2023-01-08T07:50:09.874Z,17.40
2023-01-08T07:52:36.448Z,14.60
2023-01-08T07:55:03.079Z,13.70
2023-01-08T07:57:30.205Z,13.80
2023-01-08T07:59:57.043Z,13.50
2023-01-08T08:02:24.087Z,11.70
2023-01-08T08:04:50.929Z,14.50
2023-01-08T08:07:17.627Z,15.50
2023-01-08T08:09:44.415Z,17.50
2023-01-08T08:12:11.053Z,16.50
2023-01-08T08:14:37.617Z,16.10
2023-01-08T08:17:04.182Z,21.60
2023-01-08T08:19:30.970Z,20.70
2023-01-08T08:21:57.552Z,15.10
2023-01-08T08:24:24.230Z,9.90
2023-01-08T08:26:51.490Z,10.70
2023-01-08T08:29:18.333Z,13.70
2023-01-08T08:31:44.913Z,11.10
2023-01-08T08:34:11.824Z,10.70
2023-01-08T08:36:38.397Z,9.90
2023-01-08T08:39:05.088Z,10.10
2023-01-08T08:41:31.939Z,10.10
2023-01-08T08:43:58.539Z,7.10
2023-01-08T08:46:26.286Z,8.50
2023-01-08T08:48:53.075Z,5.00
2023-01-08T08:51:19.663Z,6.40
2023-01-08T08:53:46.349Z,6.00
2023-01-08T08:56:13.183Z,5.50
2023-01-08T08:58:42.077Z,7.40
2023-01-08T09:01:08.750Z,6.40
2023-01-08T09:03:35.443Z,6.40
2023-01-08T09:06:02.615Z,5.60
2023-01-08T09:08:29.454Z,8.70
2023-01-08T09:10:56.289Z,6.20
2023-01-08T09:13:22.859Z,7.60
2023-01-08T09:15:49.585Z,7.20
2023-01-08T09:18:16.409Z,5.70
2023-01-08T09:20:42.965Z,6.40
2023-01-08T09:23:09.904Z,6.50
2023-01-08T09:25:36.540Z,6.30
2023-01-08T09:28:04.390Z,6.20
2023-01-08T09:30:31.245Z,5.60
2023-01-08T09:33:01.375Z,6.00
2023-01-08T09:35:29.437Z,6.30
2023-01-08T09:37:56.493Z,6.20
2023-01-08T09:40:26.066Z,5.20
2023-01-08T09:42:57.734Z,5.10
2023-01-08T09:45:29.283Z,6.10
2023-01-08T09:47:57.566Z,5.30
2023-01-08T09:50:26.080Z,5.30
2023-01-08T09:52:53.085Z,7.10
2023-01-08T09:55:20.964Z,5.80
2023-01-08T09:57:48.278Z,5.50
2023-01-08T10:00:16.679Z,5.30
2023-01-08T10:02:44.462Z,7.00
2023-01-08T10:05:16.114Z,9.00
2023-01-08T10:07:43.573Z,4.80
2023-01-08T10:10:16.760Z,5.10
2023-01-08T10:12:43.813Z,4.20
2023-01-08T10:15:17.920Z,5.60
2023-01-08T10:17:47.503Z,4.10
2023-01-08T10:20:15.197Z,4.50
2023-01-08T10:22:42.226Z,3.90
2023-01-08T10:25:10.565Z,4.50
2023-01-08T10:27:44.930Z,4.80
2023-01-08T10:30:15.514Z,4.50
2023-01-08T10:32:47.621Z,3.70
2023-01-08T10:35:19.388Z,5.50
2023-01-08T10:37:48.007Z,4.40
2023-01-08T10:40:23.774Z,5.10
2023-01-08T10:42:51.382Z,5.50
2023-01-08T10:45:26.011Z,3.50
2023-01-08T10:47:57.552Z,3.50
2023-01-08T10:50:26.441Z,4.80
2023-01-08T10:52:58.210Z,4.00
2023-01-08T10:55:27.739Z,5.00
2023-01-08T10:58:00.696Z,5.80
2023-01-08T11:00:29.652Z,3.70
2023-01-08T11:02:58.274Z,5.20
2023-01-08T11:05:43.080Z,4.50
2023-01-08T11:08:16.323Z,4.30
2023-01-08T11:10:43.575Z,5.10
2023-01-08T11:13:17.624Z,3.80
2023-01-08T11:15:44.678Z,5.10
2023-01-08T11:18:16.807Z,4.10
2023-01-08T11:20:43.827Z,4.10
2023-01-08T11:23:21.133Z,4.30
2023-01-08T11:25:54.741Z,4.40
2023-01-08T11:28:28.391Z,3.30
2023-01-08T11:31:00.860Z,4.10
2023-01-08T11:33:31.048Z,4.40
2023-01-08T11:36:05.821Z,5.00
2023-01-08T11:38:32.407Z,4.90
2023-01-08T11:41:17.381Z,3.20
2023-01-08T11:43:57.322Z,3.80
2023-01-08T11:46:26.955Z,3.60
2023-01-08T11:48:53.668Z,3.60
2023-01-08T11:51:20.286Z,3.50
2023-01-08T11:53:50.011Z,7.10
2023-01-08T11:56:16.648Z,5.60
2023-01-08T11:58:52.017Z,3.90
2023-01-08T12:01:26.401Z,4.00
2023-01-08T12:04:22.609Z,4.90
2023-01-08T12:07:05.661Z,3.60
2023-01-08T12:09:54.836Z,3.60
2023-01-08T12:13:00.593Z,2.80
2023-01-08T12:15:45.939Z,4.00
2023-01-08T12:18:12.515Z,8.90
2023-01-08T12:20:48.259Z,6.10
2023-01-08T12:23:47.500Z,4.70
2023-01-08T12:26:14.060Z,3.30
2023-01-08T12:28:46.841Z,3.10
2023-01-08T12:31:19.220Z,3.20
2023-01-08T12:33:53.197Z,4.80
2023-01-08T12:36:33.351Z,4.50
2023-01-08T12:39:06.126Z,3.70
2023-01-08T12:41:35.021Z,2.80
2023-01-08T12:44:03.922Z,3.50
2023-01-08T12:46:38.313Z,3.10
2023-01-08T12:49:06.652Z,2.70
2023-01-08T12:51:38.933Z,3.20
2023-01-08T12:54:11.723Z,3.70
2023-01-08T12:56:38.274Z,3.20
2023-01-08T12:59:23.766Z,2.40
2023-01-08T13:02:04.722Z,2.60
2023-01-08T13:04:44.771Z,4.20
2023-01-08T13:07:31.870Z,5.00
2023-01-08T13:10:02.206Z,2.50
2023-01-08T13:12:36.498Z,3.10
2023-01-08T13:15:04.286Z,4.40
2023-01-08T13:17:31.186Z,3.00
2023-01-08T13:20:01.891Z,3.30
2023-01-08T13:22:35.875Z,4.30
2023-01-08T13:25:32.410Z,2.90
2023-01-08T13:27:59.512Z,2.30
2023-01-08T13:30:35.719Z,2.70
2023-01-08T13:33:02.965Z,3.10
2023-01-08T13:35:31.579Z,4.20
2023-01-08T13:38:10.370Z,3.40
2023-01-08T13:40:48.157Z,2.50
2023-01-08T13:43:16.556Z,2.80
2023-01-08T13:45:44.306Z,3.10
2023-01-08T13:48:24.427Z,3.50
2023-01-08T13:50:51.415Z,4.90
2023-01-08T13:53:19.284Z,2.90
2023-01-08T13:56:06.201Z,3.30
2023-01-08T13:58:37.753Z,3.10
2023-01-08T14:01:05.292Z,1.70
2023-01-08T14:03:35.568Z,3.60
2023-01-08T14:06:07.090Z,4.00
2023-01-08T14:08:34.135Z,3.20
2023-01-08T14:11:00.801Z,3.00
2023-01-08T14:13:28.899Z,5.10
2023-01-08T14:15:59.160Z,3.30
2023-01-08T14:18:26.420Z,2.30
2023-01-08T14:20:52.987Z,2.60
2023-01-08T14:23:23.425Z,2.60
2023-01-08T14:25:51.495Z,2.80
2023-01-08T14:28:19.784Z,3.30
2023-01-08T14:30:50.259Z,2.00
2023-01-08T14:33:18.127Z,2.70
2023-01-08T14:35:45.513Z,2.70
2023-01-08T14:38:13.467Z,4.40
2023-01-08T14:40:42.747Z,3.50
2023-01-08T14:43:13.852Z,3.00
2023-01-08T14:45:45.485Z,3.20
2023-01-08T14:48:15.588Z,3.00
2023-01-08T14:50:44.329Z,2.30
2023-01-08T14:53:26.106Z,3.80
2023-01-08T14:55:54.157Z,3.60
2023-01-08T14:58:23.207Z,2.40
2023-01-08T15:01:00.384Z,4.00
2023-01-08T15:03:35.007Z,3.80
2023-01-08T15:06:01.965Z,4.20
2023-01-08T15:08:39.062Z,3.50
2023-01-08T15:11:05.888Z,2.10
2023-01-08T15:13:38.248Z,3.10
2023-01-08T15:16:10.316Z,4.50
2023-01-08T15:18:44.840Z,2.60
2023-01-08T15:21:16.604Z,2.60
2023-01-08T15:23:46.494Z,2.90
2023-01-08T15:26:14.246Z,3.90
2023-01-08T15:28:52.913Z,2.30
2023-01-08T15:31:38.400Z,1.90
2023-01-08T15:34:08.083Z,3.90
2023-01-08T15:36:35.136Z,2.10
2023-01-08T15:39:02.260Z,3.50
2023-01-08T15:41:55.044Z,2.90
2023-01-08T15:44:21.696Z,4.70
2023-01-08T15:46:49.738Z,3.30
2023-01-08T15:49:16.586Z,3.30
2023-01-08T15:51:52.849Z,2.40
2023-01-08T15:54:21.539Z,2.40
2023-01-08T15:56:48.384Z,2.60
2023-01-08T15:59:15.415Z,3.20
2023-01-08T16:01:42.766Z,3.40
2023-01-08T16:04:09.936Z,4.90
2023-01-08T16:06:37.176Z,6.90
2023-01-08T16:09:04.427Z,10.40
2023-01-08T16:11:31.429Z,24.60
2023-01-08T16:13:58.072Z,8.10
2023-01-08T16:16:27.284Z,6.40
2023-01-08T16:18:54.261Z,7.60
2023-01-08T16:21:21.019Z,13.90
2023-01-08T16:23:48.972Z,31.80
2023-01-08T16:26:16.217Z,12.60
2023-01-08T16:28:43.435Z,9.50
2023-01-08T16:31:11.010Z,6.20
2023-01-08T16:33:39.009Z,8.10
2023-01-08T16:36:08.102Z,5.30
2023-01-08T16:38:35.757Z,3.00
2023-01-08T16:41:03.627Z,4.20
2023-01-08T16:43:32.105Z,3.70
2023-01-08T16:46:03.915Z,4.10
2023-01-08T16:48:31.117Z,3.30
2023-01-08T16:51:04.741Z,2.90
2023-01-08T16:53:33.193Z,6.00
2023-01-08T16:56:00.457Z,6.70
2023-01-08T16:58:27.903Z,5.20
2023-01-08T17:00:55.198Z,4.20
2023-01-08T17:03:22.631Z,3.10
2023-01-08T17:05:49.706Z,2.60
2023-01-08T17:08:17.840Z,2.20
2023-01-08T17:10:44.990Z,3.30
2023-01-08T17:13:12.667Z,3.20
2023-01-08T17:15:40.313Z,6.00
2023-01-08T17:18:07.488Z,3.40
2023-01-08T17:20:34.411Z,3.90
2023-01-08T17:23:02.267Z,3.70
2023-01-08T17:25:30.753Z,3.30
2023-01-08T17:27:58.011Z,4.40
2023-01-08T17:30:25.264Z,4.70
2023-01-08T17:32:53.540Z,3.00
2023-01-08T17:35:21.400Z,4.50
2023-01-08T17:37:48.508Z,3.40
2023-01-08T17:40:15.508Z,3.50
2023-01-08T17:42:42.747Z,3.50
2023-01-08T17:45:09.895Z,3.20
2023-01-08T17:47:39.515Z,3.10
2023-01-08T17:50:07.178Z,4.60
2023-01-08T17:52:36.067Z,4.30
2023-01-08T17:55:04.148Z,5.90
2023-01-08T17:57:32.644Z,8.80
2023-01-08T18:00:01.500Z,5.60
2023-01-08T18:02:28.590Z,4.10
2023-01-08T18:04:55.726Z,7.90
2023-01-08T18:07:24.010Z,4.30
2023-01-08T18:09:53.782Z,4.60
2023-01-08T18:12:21.667Z,4.00
2023-01-08T18:14:50.955Z,5.20
2023-01-08T18:17:20.363Z,4.90
2023-01-08T18:19:48.943Z,8.40
2023-01-08T18:22:18.241Z,4.90
2023-01-08T18:24:45.513Z,3.30
2023-01-08T18:27:13.155Z,4.80
2023-01-08T18:29:42.866Z,4.00
2023-01-08T18:32:10.729Z,3.10
2023-01-08T18:34:39.221Z,4.20
2023-01-08T18:37:06.269Z,5.90
2023-01-08T18:39:34.948Z,4.30
2023-01-08T18:42:20.425Z,3.50
2023-01-08T18:44:49.315Z,5.50
2023-01-08T18:47:16.424Z,5.50
2023-01-08T18:49:43.404Z,4.50
2023-01-08T18:52:15.178Z,4.40
2023-01-08T18:54:42.422Z,5.30
2023-01-08T18:57:10.713Z,4.80
2023-01-08T18:59:38.976Z,9.10
2023-01-08T19:02:07.418Z,6.60
2023-01-08T19:04:34.496Z,4.40
2023-01-08T19:07:01.448Z,5.00
2023-01-08T19:09:29.212Z,4.50
2023-01-08T19:11:56.399Z,3.70
2023-01-08T19:14:23.547Z,4.20
2023-01-08T19:16:52.144Z,3.30
2023-01-08T19:19:19.849Z,3.30
2023-01-08T19:21:46.946Z,3.90
2023-01-08T19:24:14.335Z,7.00
2023-01-08T19:26:42.031Z,3.70
2023-01-08T19:29:09.083Z,4.80
2023-01-08T19:31:36.146Z,4.10
2023-01-08T19:34:04.000Z,5.20
2023-01-08T19:36:30.929Z,4.30
2023-01-08T19:38:59.055Z,2.90
2023-01-08T19:41:46.630Z,3.30
2023-01-08T19:44:14.703Z,4.80
2023-01-08T19:46:42.774Z,4.10
2023-01-08T19:49:11.054Z,5.20
2023-01-08T19:51:38.491Z,4.80
2023-01-08T19:54:06.376Z,4.60
2023-01-08T19:56:33.521Z,3.90
2023-01-08T19:59:01.079Z,4.00
2023-01-08T20:01:28.771Z,5.00
2023-01-08T20:03:56.544Z,3.90
2023-01-08T20:06:25.856Z,5.00
2023-01-08T20:08:54.842Z,5.10
2023-01-08T20:11:22.919Z,6.40
2023-01-08T20:13:51.971Z,4.40
2023-01-08T20:16:20.923Z,4.20
2023-01-08T20:18:48.545Z,3.50
2023-01-08T20:21:21.433Z,4.20
2023-01-08T20:23:48.938Z,4.60
2023-01-08T20:26:17.385Z,4.50
2023-01-08T20:28:45.723Z,5.30
2023-01-08T20:31:20.610Z,5.10
2023-01-08T20:33:48.128Z,4.30
2023-01-08T20:36:17.811Z,4.00
2023-01-08T20:38:47.087Z,4.40
2023-01-08T20:41:20.009Z,3.60
2023-01-08T20:43:48.285Z,4.20
2023-01-08T20:46:15.348Z,3.50
2023-01-08T20:48:47.820Z,4.40
2023-01-08T20:51:16.800Z,3.70
2023-01-08T20:53:45.485Z,3.40
2023-01-08T20:56:13.576Z,3.60
2023-01-08T20:58:42.469Z,3.50
2023-01-08T21:01:20.107Z,3.40
2023-01-08T21:03:47.726Z,4.80
2023-01-08T21:06:16.435Z,3.40
2023-01-08T21:08:44.535Z,3.80
2023-01-08T21:11:12.383Z,3.50
2023-01-08T21:13:40.410Z,5.00
2023-01-08T21:16:28.926Z,3.20
2023-01-08T21:18:57.276Z,4.60
2023-01-08T21:21:26.570Z,3.30
2023-01-08T21:23:53.498Z,3.30
2023-01-08T21:26:20.563Z,4.50
2023-01-08T21:28:49.784Z,4.30
2023-01-08T21:31:18.615Z,4.60
2023-01-08T21:33:48.696Z,4.90
2023-01-08T21:36:16.747Z,3.70
2023-01-08T21:38:43.382Z,3.60
2023-01-08T21:41:11.795Z,4.20
2023-01-08T21:43:57.501Z,4.30
2023-01-08T21:46:25.654Z,3.10
2023-01-08T21:48:52.474Z,4.80
2023-01-08T21:51:38.234Z,3.90
2023-01-08T21:54:05.143Z,3.70
2023-01-08T21:56:31.782Z,5.20
2023-01-08T21:58:58.631Z,4.30
2023-01-08T22:01:25.337Z,2.70
2023-01-08T22:03:52.295Z,2.90
2023-01-08T22:06:18.935Z,2.90
2023-01-08T22:08:50.329Z,3.40
2023-01-08T22:11:17.122Z,3.60
2023-01-08T22:13:43.814Z,3.90
2023-01-08T22:16:10.831Z,4.20
2023-01-08T22:18:37.872Z,3.80
2023-01-08T22:21:13.953Z,3.80
2023-01-08T22:23:40.514Z,3.30
2023-01-08T22:26:08.070Z,3.30
2023-01-08T22:28:39.214Z,3.90
2023-01-08T22:31:09.748Z,4.10
2023-01-08T22:33:36.918Z,4.10
2023-01-08T22:36:04.245Z,4.90
2023-01-08T22:38:30.841Z,5.30
2023-01-08T22:40:57.469Z,4.00
2023-01-08T22:43:24.523Z,4.10
2023-01-08T22:45:52.187Z,5.20
2023-01-08T22:48:18.822Z,4.20
2023-01-08T22:50:45.684Z,4.50
2023-01-08T22:53:12.243Z,4.30
2023-01-08T22:55:46.475Z,3.20
2023-01-08T22:58:14.000Z,4.10
2023-01-08T23:00:41.064Z,4.00
2023-01-08T23:03:08.317Z,3.60
2023-01-08T23:05:35.080Z,3.60
2023-01-08T23:08:02.135Z,3.90
2023-01-08T23:10:29.141Z,4.50
2023-01-08T23:12:56.040Z,4.80
2023-01-08T23:15:23.220Z,3.70
2023-01-08T23:17:52.364Z,3.50
2023-01-08T23:20:20.174Z,5.40
2023-01-08T23:22:47.371Z,3.90
2023-01-08T23:25:14.037Z,3.60
2023-01-08T23:27:40.727Z,5.90
2023-01-08T23:30:07.581Z,3.80
2023-01-08T23:32:34.152Z,4.20
2023-01-08T23:35:00.774Z,4.60
2023-01-08T23:37:27.405Z,5.10
2023-01-08T23:39:54.017Z,5.10
2023-01-08T23:42:20.628Z,5.10
2023-01-08T23:44:49.312Z,5.40
2023-01-08T23:47:15.930Z,4.20
2023-01-08T23:49:42.791Z,5.90
2023-01-08T23:52:09.360Z,4.50
2023-01-08T23:54:36.061Z,6.00
2023-01-08T23:57:02.753Z,6.50
2023-01-08T23:59:29.538Z,4.30
